sensor_id;sensor_type;location;lat;lon;timestamp;pressure;altitude;pressure_sealevel;temperature;humidity
48015;BME280;33780;51.034;7.120;2022-08-21T00:02:15;100930.81;;;18.65;60.94
48015;BME280;33780;51.034;7.120;2022-08-21T00:04:41;100935.41;;;18.64;60.83
48015;BME280;33780;51.034;7.120;2022-08-21T00:07:06;100925.72;;;18.62;60.62
48015;BME280;33780;51.034;7.120;2022-08-21T00:09:31;100931.34;;;18.60;61.14
48015;BME280;33780;51.034;7.120;2022-08-21T00:11:57;100924.41;;;18.58;61.20
48015;BME280;33780;51.034;7.120;2022-08-21T00:14:22;100929.16;;;18.56;61.13
48015;BME280;33780;51.034;7.120;2022-08-21T00:16:47;100923.09;;;18.54;60.90
48015;BME280;33780;51.034;7.120;2022-08-21T00:19:13;100921.59;;;18.51;60.96
48015;BME280;33780;51.034;7.120;2022-08-21T00:21:38;100920.91;;;18.49;61.10
48015;BME280;33780;51.034;7.120;2022-08-21T00:24:04;100915.81;;;18.46;61.18
48015;BME280;33780;51.034;7.120;2022-08-21T00:26:30;100917.88;;;18.44;61.24
48015;BME280;33780;51.034;7.120;2022-08-21T00:28:55;100915.34;;;18.42;61.27
48015;BME280;33780;51.034;7.120;2022-08-21T00:31:20;100910.09;;;18.41;61.06
48015;BME280;33780;51.034;7.120;2022-08-21T00:33:46;100911.31;;;18.38;61.44
48015;BME280;33780;51.034;7.120;2022-08-21T00:36:12;100910.81;;;18.35;61.56
48015;BME280;33780;51.034;7.120;2022-08-21T00:38:37;100899.31;;;18.33;61.33
48015;BME280;33780;51.034;7.120;2022-08-21T00:41:05;100906.75;;;18.31;61.50
48015;BME280;33780;51.034;7.120;2022-08-21T00:43:34;100905.25;;;18.28;61.45
48015;BME280;33780;51.034;7.120;2022-08-21T00:46:00;100901.88;;;18.26;61.50
48015;BME280;33780;51.034;7.120;2022-08-21T00:48:26;100897.66;;;18.24;61.40
48015;BME280;33780;51.034;7.120;2022-08-21T00:51:13;100901.56;;;18.21;61.70
48015;BME280;33780;51.034;7.120;2022-08-21T00:53:42;100912.41;;;18.21;61.56
48015;BME280;33780;51.034;7.120;2022-08-21T00:56:10;100901.94;;;18.18;61.39
48015;BME280;33780;51.034;7.120;2022-08-21T00:58:39;100908.56;;;18.16;61.50
48015;BME280;33780;51.034;7.120;2022-08-21T01:01:07;100905.19;;;18.14;61.81
48015;BME280;33780;51.034;7.120;2022-08-21T01:03:35;100909.06;;;18.11;61.65
48015;BME280;33780;51.034;7.120;2022-08-21T01:06:01;100916.69;;;18.07;61.06
48015;BME280;33780;51.034;7.120;2022-08-21T01:08:27;100908.94;;;18.04;61.67
48015;BME280;33780;51.034;7.120;2022-08-21T01:10:54;100914.69;;;18.01;61.68
48015;BME280;33780;51.034;7.120;2022-08-21T01:13:21;100913.38;;;17.97;61.64
48015;BME280;33780;51.034;7.120;2022-08-21T01:15:50;100912.69;;;17.95;61.86
48015;BME280;33780;51.034;7.120;2022-08-21T01:18:18;100923.69;;;17.94;61.77
48015;BME280;33780;51.034;7.120;2022-08-21T01:23:29;100935.72;;;17.91;61.62
48015;BME280;33780;51.034;7.120;2022-08-21T01:25:55;100920.66;;;17.89;61.92
48015;BME280;33780;51.034;7.120;2022-08-21T01:28:21;100920.00;;;17.87;61.86
48015;BME280;33780;51.034;7.120;2022-08-21T01:30:48;100914.94;;;17.84;62.04
48015;BME280;33780;51.034;7.120;2022-08-21T01:33:18;100913.25;;;17.83;61.84
48015;BME280;33780;51.034;7.120;2022-08-21T01:35:45;100916.97;;;17.81;61.91
48015;BME280;33780;51.034;7.120;2022-08-21T01:38:10;100919.00;;;17.79;61.85
48015;BME280;33780;51.034;7.120;2022-08-21T01:40:36;100922.88;;;17.77;61.70
48015;BME280;33780;51.034;7.120;2022-08-21T01:43:01;100921.56;;;17.73;61.77
48015;BME280;33780;51.034;7.120;2022-08-21T01:45:28;100921.72;;;17.71;61.98
48015;BME280;33780;51.034;7.120;2022-08-21T01:47:53;100923.59;;;17.71;61.94
48015;BME280;33780;51.034;7.120;2022-08-21T01:50:19;100920.34;;;17.67;62.05
48015;BME280;33780;51.034;7.120;2022-08-21T01:52:46;100914.28;;;17.65;62.09
48015;BME280;33780;51.034;7.120;2022-08-21T01:55:13;100914.44;;;17.64;61.78
48015;BME280;33780;51.034;7.120;2022-08-21T01:57:39;100921.06;;;17.61;62.09
48015;BME280;33780;51.034;7.120;2022-08-21T02:00:08;100919.69;;;17.57;62.25
48015;BME280;33780;51.034;7.120;2022-08-21T02:02:36;100917.34;;;17.54;62.20
48015;BME280;33780;51.034;7.120;2022-08-21T02:05:02;100916.66;;;17.52;61.95
48015;BME280;33780;51.034;7.120;2022-08-21T02:07:38;100915.16;;;17.49;61.92
48015;BME280;33780;51.034;7.120;2022-08-21T02:10:06;100905.53;;;17.47;61.84
48015;BME280;33780;51.034;7.120;2022-08-21T02:12:31;100910.25;;;17.45;62.03
48015;BME280;33780;51.034;7.120;2022-08-21T02:14:57;100910.59;;;17.42;61.89
48015;BME280;33780;51.034;7.120;2022-08-21T02:17:22;100910.75;;;17.40;62.29
48015;BME280;33780;51.034;7.120;2022-08-21T02:19:48;100904.66;;;17.38;61.94
48015;BME280;33780;51.034;7.120;2022-08-21T02:22:13;100907.56;;;17.37;62.02
48015;BME280;33780;51.034;7.120;2022-08-21T02:24:39;100909.75;;;17.33;62.18
48015;BME280;33780;51.034;7.120;2022-08-21T02:27:04;100908.25;;;17.31;62.16
48015;BME280;33780;51.034;7.120;2022-08-21T02:29:30;100904.88;;;17.29;62.18
48015;BME280;33780;51.034;7.120;2022-08-21T02:31:55;100908.09;;;17.24;62.03
48015;BME280;33780;51.034;7.120;2022-08-21T02:34:21;100903.00;;;17.21;62.23
48015;BME280;33780;51.034;7.120;2022-08-21T02:36:46;100908.75;;;17.18;62.30
48015;BME280;33780;51.034;7.120;2022-08-21T02:39:11;100914.50;;;17.15;62.17
48015;BME280;33780;51.034;7.120;2022-08-21T02:41:37;100902.84;;;17.14;62.11
48015;BME280;33780;51.034;7.120;2022-08-21T02:44:02;100908.59;;;17.11;62.41
48015;BME280;33780;51.034;7.120;2022-08-21T02:46:27;100905.41;;;17.08;62.20
48015;BME280;33780;51.034;7.120;2022-08-21T02:48:53;100899.31;;;17.06;62.37
48015;BME280;33780;51.034;7.120;2022-08-21T02:51:19;100897.78;;;17.03;62.74
48015;BME280;33780;51.034;7.120;2022-08-21T02:53:46;100899.81;;;17.01;62.42
48015;BME280;33780;51.034;7.120;2022-08-21T02:56:14;100893.88;;;16.98;62.29
48015;BME280;33780;51.034;7.120;2022-08-21T02:58:43;100895.06;;;16.95;62.37
48015;BME280;33780;51.034;7.120;2022-08-21T03:01:10;100897.94;;;16.94;62.41
48015;BME280;33780;51.034;7.120;2022-08-21T03:03:37;100896.44;;;16.91;62.38
48015;BME280;33780;51.034;7.120;2022-08-21T03:06:05;100901.16;;;16.89;62.55
48015;BME280;33780;51.034;7.120;2022-08-21T03:08:30;100892.53;;;16.85;62.52
48015;BME280;33780;51.034;7.120;2022-08-21T03:10:56;100896.25;;;16.84;62.70
48015;BME280;33780;51.034;7.120;2022-08-21T03:13:21;100894.56;;;16.83;62.48
48015;BME280;33780;51.034;7.120;2022-08-21T03:15:48;100899.97;;;16.83;62.51
48015;BME280;33780;51.034;7.120;2022-08-21T03:18:14;100902.84;;;16.82;62.14
48015;BME280;33780;51.034;7.120;2022-08-21T03:20:41;100902.16;;;16.80;62.29
48015;BME280;33780;51.034;7.120;2022-08-21T03:23:08;100902.50;;;16.77;62.44
48015;BME280;33780;51.034;7.120;2022-08-21T03:25:34;100896.44;;;16.75;62.57
48015;BME280;33780;51.034;7.120;2022-08-21T03:28:01;100890.34;;;16.73;62.70
48015;BME280;33780;51.034;7.120;2022-08-21T03:30:27;100901.31;;;16.71;62.56
48015;BME280;33780;51.034;7.120;2022-08-21T03:32:53;100892.38;;;16.71;62.50
48015;BME280;33780;51.034;7.120;2022-08-21T03:35:20;100902.47;;;16.69;62.78
48015;BME280;33780;51.034;7.120;2022-08-21T03:37:46;100901.81;;;16.67;62.97
48015;BME280;33780;51.034;7.120;2022-08-21T03:40:14;100894.84;;;16.64;62.60
48015;BME280;33780;51.034;7.120;2022-08-21T03:42:40;100903.13;;;16.62;63.23
48015;BME280;33780;51.034;7.120;2022-08-21T03:45:06;100899.56;;;16.62;62.86
48015;BME280;33780;51.034;7.120;2022-08-21T03:47:32;100898.72;;;16.61;62.94
48015;BME280;33780;51.034;7.120;2022-08-21T03:49:58;100902.44;;;16.60;63.03
48015;BME280;33780;51.034;7.120;2022-08-21T03:52:24;100899.91;;;16.59;62.89
48015;BME280;33780;51.034;7.120;2022-08-21T03:54:50;100896.53;;;16.57;62.63
48015;BME280;33780;51.034;7.120;2022-08-21T03:57:15;100900.25;;;16.56;62.91
48015;BME280;33780;51.034;7.120;2022-08-21T03:59:41;100902.28;;;16.54;62.86
48015;BME280;33780;51.034;7.120;2022-08-21T04:02:09;100897.03;;;16.52;62.88
48015;BME280;33780;51.034;7.120;2022-08-21T04:04:35;100901.72;;;16.50;62.99
48015;BME280;33780;51.034;7.120;2022-08-21T04:07:01;100907.47;;;16.47;63.00
48015;BME280;33780;51.034;7.120;2022-08-21T04:09:27;100906.97;;;16.44;62.67
48015;BME280;33780;51.034;7.120;2022-08-21T04:11:52;100914.41;;;16.42;63.03
48015;BME280;33780;51.034;7.120;2022-08-21T04:14:18;100910.16;;;16.39;62.89
48015;BME280;33780;51.034;7.120;2022-08-21T04:16:44;100916.75;;;16.37;62.96
48015;BME280;33780;51.034;7.120;2022-08-21T04:19:11;100916.06;;;16.35;62.89
48015;BME280;33780;51.034;7.120;2022-08-21T04:21:39;100915.38;;;16.32;62.91
48015;BME280;33780;51.034;7.120;2022-08-21T04:24:05;100916.53;;;16.30;62.92
48015;BME280;33780;51.034;7.120;2022-08-21T04:26:32;100908.78;;;16.27;62.85
48015;BME280;33780;51.034;7.120;2022-08-21T04:28:59;100911.81;;;16.24;63.11
48015;BME280;33780;51.034;7.120;2022-08-21T04:31:24;100912.13;;;16.21;63.20
48015;BME280;33780;51.034;7.120;2022-08-21T04:33:50;100914.16;;;16.19;63.24
48015;BME280;33780;51.034;7.120;2022-08-21T04:36:16;100917.88;;;16.18;62.97
48015;BME280;33780;51.034;7.120;2022-08-21T04:38:41;100920.75;;;16.16;63.27
48015;BME280;33780;51.034;7.120;2022-08-21T04:41:06;100920.19;;;16.13;63.34
48015;BME280;33780;51.034;7.120;2022-08-21T04:43:32;100915.81;;;16.12;63.52
48015;BME280;33780;51.034;7.120;2022-08-21T04:45:58;100924.91;;;16.11;63.42
48015;BME280;33780;51.034;7.120;2022-08-21T04:48:24;100924.22;;;16.09;63.35
48015;BME280;33780;51.034;7.120;2022-08-21T04:51:09;100927.25;;;16.06;63.24
48015;BME280;33780;51.034;7.120;2022-08-21T04:53:49;100923.88;;;16.04;63.60
48015;BME280;33780;51.034;7.120;2022-08-21T04:56:22;100925.75;;;16.03;63.35
48015;BME280;33780;51.034;7.120;2022-08-21T04:58:48;100927.59;;;16.02;63.42
48015;BME280;33780;51.034;7.120;2022-08-21T05:01:17;100926.06;;;16.00;63.52
48015;BME280;33780;51.034;7.120;2022-08-21T05:03:45;100925.22;;;15.99;63.22
48015;BME280;33780;51.034;7.120;2022-08-21T05:06:13;100929.78;;;15.99;63.44
48015;BME280;33780;51.034;7.120;2022-08-21T05:08:40;100940.41;;;16.00;63.79
48015;BME280;33780;51.034;7.120;2022-08-21T05:11:07;100927.75;;;16.01;63.55
48015;BME280;33780;51.034;7.120;2022-08-21T05:13:33;100932.31;;;16.00;63.77
48015;BME280;33780;51.034;7.120;2022-08-21T05:15:58;100937.72;;;16.00;63.51
48015;BME280;33780;51.034;7.120;2022-08-21T05:18:24;100940.56;;;15.99;63.64
48015;BME280;33780;51.034;7.120;2022-08-21T05:20:49;100949.53;;;15.99;63.79
48015;BME280;33780;51.034;7.120;2022-08-21T05:23:16;100949.53;;;15.99;63.56
48015;BME280;33780;51.034;7.120;2022-08-21T05:25:41;100949.53;;;15.99;63.72
48015;BME280;33780;51.034;7.120;2022-08-21T05:28:08;100946.97;;;15.98;63.69
48015;BME280;33780;51.034;7.120;2022-08-21T05:30:34;100948.66;;;15.99;63.76
48015;BME280;33780;51.034;7.120;2022-08-21T05:33:02;100948.66;;;15.99;63.82
48015;BME280;33780;51.034;7.120;2022-08-21T05:35:28;100945.13;;;15.98;63.95
48015;BME280;33780;51.034;7.120;2022-08-21T05:37:55;100951.38;;;15.99;64.16
48015;BME280;33780;51.034;7.120;2022-08-21T05:40:22;100950.53;;;15.98;64.20
48015;BME280;33780;51.034;7.120;2022-08-21T05:42:47;100951.38;;;15.99;64.22
48015;BME280;33780;51.034;7.120;2022-08-21T05:45:13;100948.66;;;15.99;64.47
48015;BME280;33780;51.034;7.120;2022-08-21T05:47:38;100947.66;;;16.00;64.63
48015;BME280;33780;51.034;7.120;2022-08-21T05:50:05;100940.56;;;15.99;64.56
48015;BME280;33780;51.034;7.120;2022-08-21T05:52:30;100943.97;;;16.01;64.55
48015;BME280;33780;51.034;7.120;2022-08-21T05:54:56;100942.94;;;16.02;64.53
48015;BME280;33780;51.034;7.120;2022-08-21T05:57:22;100940.94;;;16.04;64.71
48015;BME280;33780;51.034;7.120;2022-08-21T05:59:49;100947.00;;;16.06;64.55
48015;BME280;33780;51.034;7.120;2022-08-21T06:02:17;100946.00;;;16.07;64.76
48015;BME280;33780;51.034;7.120;2022-08-21T06:04:43;100949.38;;;16.09;64.94
48015;BME280;33780;51.034;7.120;2022-08-21T06:07:08;100946.69;;;16.09;65.10
48015;BME280;33780;51.034;7.120;2022-08-21T06:09:34;100944.81;;;16.10;64.90
48015;BME280;33780;51.034;7.120;2022-08-21T06:12:10;100942.81;;;16.12;65.16
48015;BME280;33780;51.034;7.120;2022-08-21T06:14:36;100944.31;;;16.14;65.27
48015;BME280;33780;51.034;7.120;2022-08-21T06:17:07;100943.03;;;16.18;65.47
48015;BME280;33780;51.034;7.120;2022-08-21T06:19:32;100943.69;;;16.20;65.70
48015;BME280;33780;51.034;7.120;2022-08-21T06:21:58;100943.38;;;16.23;65.56
48015;BME280;33780;51.034;7.120;2022-08-21T06:24:23;100945.56;;;16.28;65.74
48015;BME280;33780;51.034;7.120;2022-08-21T06:26:49;100939.84;;;16.31;66.01
48015;BME280;33780;51.034;7.120;2022-08-21T06:29:14;100940.22;;;16.36;66.10
48015;BME280;33780;51.034;7.120;2022-08-21T06:31:42;100932.63;;;16.40;66.28
48015;BME280;33780;51.034;7.120;2022-08-21T06:34:08;100924.88;;;16.45;66.44
48015;BME280;33780;51.034;7.120;2022-08-21T06:36:33;100931.63;;;16.49;66.46
48015;BME280;33780;51.034;7.120;2022-08-21T06:38:59;100923.88;;;16.54;66.67
48015;BME280;33780;51.034;7.120;2022-08-21T06:41:26;100925.25;;;16.58;66.59
48015;BME280;33780;51.034;7.120;2022-08-21T06:43:51;100923.91;;;16.62;66.90
48015;BME280;33780;51.034;7.120;2022-08-21T06:46:17;100927.94;;;16.66;66.79
48015;BME280;33780;51.034;7.120;2022-08-21T06:48:42;100923.97;;;16.70;67.13
48015;BME280;33780;51.034;7.120;2022-08-21T06:51:08;100921.75;;;16.74;67.50
48015;BME280;33780;51.034;7.120;2022-08-21T06:53:34;100934.94;;;16.77;67.75
48015;BME280;33780;51.034;7.120;2022-08-21T06:55:59;100931.91;;;16.80;67.56
48015;BME280;33780;51.034;7.120;2022-08-21T06:58:24;100931.56;;;16.83;68.09
48015;BME280;33780;51.034;7.120;2022-08-21T07:00:50;100937.47;;;16.86;68.44
48015;BME280;33780;51.034;7.120;2022-08-21T07:03:23;100929.06;;;16.89;68.26
48015;BME280;33780;51.034;7.120;2022-08-21T07:05:49;100931.06;;;16.96;68.51
48015;BME280;33780;51.034;7.120;2022-08-21T07:08:15;100934.09;;;17.01;68.42
48015;BME280;33780;51.034;7.120;2022-08-21T07:10:40;100934.31;;;17.07;68.56
48015;BME280;33780;51.034;7.120;2022-08-21T07:13:06;100935.47;;;17.13;68.68
48015;BME280;33780;51.034;7.120;2022-08-21T07:15:31;100933.09;;;17.18;68.79
48015;BME280;33780;51.034;7.120;2022-08-21T07:17:58;100928.19;;;17.21;69.13
48015;BME280;33780;51.034;7.120;2022-08-21T07:20:24;100933.78;;;17.28;68.85
48015;BME280;33780;51.034;7.120;2022-08-21T07:22:50;100929.38;;;17.35;68.68
48015;BME280;33780;51.034;7.120;2022-08-21T07:25:15;100935.63;;;17.44;68.54
48015;BME280;33780;51.034;7.120;2022-08-21T07:27:41;100933.75;;;17.52;68.38
48015;BME280;33780;51.034;7.120;2022-08-21T07:30:06;100940.00;;;17.61;68.00
48015;BME280;33780;51.034;7.120;2022-08-21T07:32:32;100939.00;;;17.70;67.53
48015;BME280;33780;51.034;7.120;2022-08-21T07:34:57;100938.13;;;17.78;67.38
48015;BME280;33780;51.034;7.120;2022-08-21T07:37:22;100934.72;;;17.84;66.80
48015;BME280;33780;51.034;7.120;2022-08-21T07:39:48;100932.34;;;17.89;66.63
48015;BME280;33780;51.034;7.120;2022-08-21T07:42:14;100937.03;;;17.95;66.06
48015;BME280;33780;51.034;7.120;2022-08-21T07:44:40;100934.50;;;18.02;66.15
48015;BME280;33780;51.034;7.120;2022-08-21T07:47:05;100938.38;;;18.07;65.90
48015;BME280;33780;51.034;7.120;2022-08-21T07:49:30;100932.28;;;18.14;65.74
48015;BME280;33780;51.034;7.120;2022-08-21T07:51:56;100927.16;;;18.19;65.79
48015;BME280;33780;51.034;7.120;2022-08-21T07:54:21;100935.41;;;18.25;65.42
48015;BME280;33780;51.034;7.120;2022-08-21T07:56:47;100918.63;;;18.30;65.35
48015;BME280;33780;51.034;7.120;2022-08-21T07:59:12;100923.34;;;18.36;65.38
48015;BME280;33780;51.034;7.120;2022-08-21T08:01:37;100913.84;;;18.40;65.25
48015;BME280;33780;51.034;7.120;2022-08-21T08:04:03;100923.97;;;18.46;65.41
48015;BME280;33780;51.034;7.120;2022-08-21T08:06:29;100922.59;;;18.50;65.20
48015;BME280;33780;51.034;7.120;2022-08-21T08:08:55;100926.63;;;18.54;64.84
48015;BME280;33780;51.034;7.120;2022-08-21T08:11:21;100934.03;;;18.60;64.59
48015;BME280;33780;51.034;7.120;2022-08-21T08:13:49;100927.28;;;18.64;64.61
48015;BME280;33780;51.034;7.120;2022-08-21T08:16:15;100930.31;;;18.69;64.35
48015;BME280;33780;51.034;7.120;2022-08-21T08:18:41;100930.78;;;18.73;64.03
48015;BME280;33780;51.034;7.120;2022-08-21T08:21:08;100927.53;;;18.78;63.85
48015;BME280;33780;51.034;7.120;2022-08-21T08:23:33;100927.81;;;18.83;64.06
48015;BME280;33780;51.034;7.120;2022-08-21T08:25:59;100925.44;;;18.88;63.81
48015;BME280;33780;51.034;7.120;2022-08-21T08:28:25;100918.63;;;18.92;63.44
48015;BME280;33780;51.034;7.120;2022-08-21T08:30:50;100928.91;;;18.96;63.08
48015;BME280;33780;51.034;7.120;2022-08-21T08:33:16;100925.84;;;18.99;62.41
48015;BME280;33780;51.034;7.120;2022-08-21T08:35:47;100920.91;;;19.03;62.49
48015;BME280;33780;51.034;7.120;2022-08-21T08:38:14;100905.94;;;19.07;62.35
48015;BME280;33780;51.034;7.120;2022-08-21T08:43:59;100914.84;;;19.16;61.70
48015;BME280;33780;51.034;7.120;2022-08-21T08:46:44;100906.16;;;19.20;61.88
48015;BME280;33780;51.034;7.120;2022-08-21T08:49:23;100900.84;;;19.27;61.59
48015;BME280;33780;51.034;7.120;2022-08-21T08:54:42;100899.41;;;19.39;61.09
48015;BME280;33780;51.034;7.120;2022-08-21T08:57:16;100898.66;;;19.45;61.12
48015;BME280;33780;51.034;7.120;2022-08-21T08:59:49;100892.66;;;19.50;60.93
48015;BME280;33780;51.034;7.120;2022-08-21T09:02:17;100899.91;;;19.57;60.86
48015;BME280;33780;51.034;7.120;2022-08-21T09:04:45;100890.19;;;19.63;60.52
48015;BME280;33780;51.034;7.120;2022-08-21T09:07:45;100892.97;;;19.70;60.38
48015;BME280;33780;51.034;7.120;2022-08-21T09:10:45;100892.06;;;19.77;60.23
48015;BME280;33780;51.034;7.120;2022-08-21T09:13:23;100877.91;;;19.82;59.78
48015;BME280;33780;51.034;7.120;2022-08-21T09:23:57;100874.31;;;20.11;58.15
48015;BME280;33780;51.034;7.120;2022-08-21T09:26:29;100870.66;;;20.18;58.48
48015;BME280;33780;51.034;7.120;2022-08-21T09:28:58;100865.47;;;20.23;58.12
48015;BME280;33780;51.034;7.120;2022-08-21T09:31:30;100869.31;;;20.29;58.08
48015;BME280;33780;51.034;7.120;2022-08-21T09:34:07;100863.50;;;20.32;58.04
48015;BME280;33780;51.034;7.120;2022-08-21T09:36:43;100874.44;;;20.39;57.29
48015;BME280;33780;51.034;7.120;2022-08-21T09:39:11;100869.47;;;20.42;57.26
48015;BME280;33780;51.034;7.120;2022-08-21T09:41:37;100876.41;;;20.45;57.04
48015;BME280;33780;51.034;7.120;2022-08-21T09:44:05;100871.44;;;20.48;56.89
48015;BME280;33780;51.034;7.120;2022-08-21T09:46:31;100864.19;;;20.56;56.94
48015;BME280;33780;51.034;7.120;2022-08-21T09:49:01;100866.13;;;20.62;56.26
48015;BME280;33780;51.034;7.120;2022-08-21T09:51:32;100859.94;;;20.68;56.02
48015;BME280;33780;51.034;7.120;2022-08-21T09:56:36;100855.44;;;20.81;55.70
48015;BME280;33780;51.034;7.120;2022-08-21T09:59:32;100854.28;;;20.91;55.96
48015;BME280;33780;51.034;7.120;2022-08-21T10:02:01;100859.97;;;20.96;55.54
48015;BME280;33780;51.034;7.120;2022-08-21T10:04:33;100847.28;;;21.03;55.71
48015;BME280;33780;51.034;7.120;2022-08-21T10:07:13;100844.59;;;21.09;55.51
48015;BME280;33780;51.034;7.120;2022-08-21T10:09:40;100842.75;;;21.17;55.33
48015;BME280;33780;51.034;7.120;2022-08-21T10:12:31;100848.09;;;21.25;55.33
48015;BME280;33780;51.034;7.120;2022-08-21T10:23:28;100831.25;;;21.42;53.10
48015;BME280;33780;51.034;7.120;2022-08-21T10:30:56;100812.72;;;21.59;52.49
48015;BME280;33780;51.034;7.120;2022-08-21T10:36:25;100814.22;;;21.68;52.82
48015;BME280;33780;51.034;7.120;2022-08-21T10:39:17;100824.53;;;21.73;52.14
48015;BME280;33780;51.034;7.120;2022-08-21T10:47:30;100811.38;;;21.90;51.90
48015;BME280;33780;51.034;7.120;2022-08-21T10:50:22;100811.38;;;21.90;52.21
48015;BME280;33780;51.034;7.120;2022-08-21T10:55:25;100811.38;;;21.90;51.77
48015;BME280;33780;51.034;7.120;2022-08-21T11:00:20;100802.19;;;21.91;51.84
48015;BME280;33780;51.034;7.120;2022-08-21T11:03:20;100804.91;;;21.97;51.80
48015;BME280;33780;51.034;7.120;2022-08-21T11:05:52;100804.50;;;22.00;51.62
48015;BME280;33780;51.034;7.120;2022-08-21T11:08:26;100808.53;;;22.05;50.44
48015;BME280;33780;51.034;7.120;2022-08-21T11:10:59;100800.59;;;22.10;51.41
48015;BME280;33780;51.034;7.120;2022-08-21T11:13:40;100802.91;;;22.13;50.93
48015;BME280;33780;51.034;7.120;2022-08-21T11:16:10;100805.00;;;22.17;51.39
48015;BME280;33780;51.034;7.120;2022-08-21T11:18:42;100807.13;;;22.22;51.25
48015;BME280;33780;51.034;7.120;2022-08-21T11:21:41;100795.78;;;22.25;50.96
48015;BME280;33780;51.034;7.120;2022-08-21T11:24:30;100798.97;;;22.28;51.32
48015;BME280;33780;51.034;7.120;2022-08-21T11:27:18;100797.50;;;22.33;51.03
48015;BME280;33780;51.034;7.120;2022-08-21T11:29:55;100787.84;;;22.37;50.30
48015;BME280;33780;51.034;7.120;2022-08-21T11:49:15;100788.53;;;22.65;49.42
48015;BME280;33780;51.034;7.120;2022-08-21T11:51:59;100800.47;;;22.71;49.28
48015;BME280;33780;51.034;7.120;2022-08-21T11:54:54;100785.78;;;22.78;49.33
48015;BME280;33780;51.034;7.120;2022-08-21T12:00:00;100778.28;;;22.87;46.69
48015;BME280;33780;51.034;7.120;2022-08-21T12:02:34;100774.47;;;22.95;49.08
48015;BME280;33780;51.034;7.120;2022-08-21T12:05:05;100778.06;;;23.02;48.40
48015;BME280;33780;51.034;7.120;2022-08-21T12:07:42;100781.81;;;23.07;47.56
48015;BME280;33780;51.034;7.120;2022-08-21T12:10:18;100783.91;;;23.12;47.40
48015;BME280;33780;51.034;7.120;2022-08-21T12:12:47;100773.38;;;23.15;47.46
48015;BME280;33780;51.034;7.120;2022-08-21T12:18:04;100766.66;;;23.25;47.77
48015;BME280;33780;51.034;7.120;2022-08-21T12:23:46;100770.44;;;23.37;47.47
48015;BME280;33780;51.034;7.120;2022-08-21T12:26:52;100755.06;;;23.42;46.86
48015;BME280;33780;51.034;7.120;2022-08-21T12:29:22;100759.44;;;23.50;44.37
48015;BME280;33780;51.034;7.120;2022-08-21T12:31:56;100755.69;;;23.58;46.43
48015;BME280;33780;51.034;7.120;2022-08-21T12:34:50;100761.31;;;23.63;45.42
48015;BME280;33780;51.034;7.120;2022-08-21T12:37:39;100754.16;;;23.68;44.51
48015;BME280;33780;51.034;7.120;2022-08-21T12:40:43;100757.09;;;23.73;43.91
48015;BME280;33780;51.034;7.120;2022-08-21T12:43:18;100767.13;;;23.79;42.71
48015;BME280;33780;51.034;7.120;2022-08-21T12:45:48;100762.91;;;23.84;42.57
48015;BME280;33780;51.034;7.120;2022-08-21T12:51:18;100756.81;;;23.88;44.06
48015;BME280;33780;51.034;7.120;2022-08-21T12:53:51;100758.28;;;23.91;43.93
48015;BME280;33780;51.034;7.120;2022-08-21T12:56:33;100755.72;;;23.96;44.21
48015;BME280;33780;51.034;7.120;2022-08-21T12:59:07;100753.16;;;24.01;44.54
48015;BME280;33780;51.034;7.120;2022-08-21T13:01:38;100760.06;;;24.03;44.23
48015;BME280;33780;51.034;7.120;2022-08-21T13:04:10;100753.53;;;24.04;43.49
48015;BME280;33780;51.034;7.120;2022-08-21T13:06:40;100759.22;;;24.09;44.36
48015;BME280;33780;51.034;7.120;2022-08-21T13:09:11;100756.44;;;24.16;44.39
48015;BME280;33780;51.034;7.120;2022-08-21T13:11:37;100763.56;;;24.24;44.44
48015;BME280;33780;51.034;7.120;2022-08-21T13:14:04;100757.84;;;24.32;43.26
48015;BME280;33780;51.034;7.120;2022-08-21T13:16:30;100752.53;;;24.37;44.04
48015;BME280;33780;51.034;7.120;2022-08-21T13:19:06;100746.81;;;24.45;43.90
48015;BME280;33780;51.034;7.120;2022-08-21T13:21:40;100752.22;;;24.52;42.31
48015;BME280;33780;51.034;7.120;2022-08-21T13:26:50;100746.41;;;24.66;42.58
48015;BME280;33780;51.034;7.120;2022-08-21T13:29:18;100747.19;;;24.74;43.12
48015;BME280;33780;51.034;7.120;2022-08-21T13:31:59;100733.22;;;24.82;43.39
48015;BME280;33780;51.034;7.120;2022-08-21T13:34:31;100741.97;;;24.90;43.69
48015;BME280;33780;51.034;7.120;2022-08-21T13:37:04;100737.94;;;24.93;41.27
48015;BME280;33780;51.034;7.120;2022-08-21T13:39:30;100738.75;;;25.00;42.50
48015;BME280;33780;51.034;7.120;2022-08-21T13:41:58;100746.06;;;25.06;43.04
48015;BME280;33780;51.034;7.120;2022-08-21T13:44:40;100732.28;;;25.13;41.45
48015;BME280;33780;51.034;7.120;2022-08-21T13:47:06;100737.72;;;25.19;43.16
48015;BME280;33780;51.034;7.120;2022-08-21T13:49:38;100735.13;;;25.24;42.12
48015;BME280;33780;51.034;7.120;2022-08-21T13:52:12;100727.88;;;25.30;42.34
48015;BME280;33780;51.034;7.120;2022-08-21T13:54:40;100726.16;;;25.36;41.86
48015;BME280;33780;51.034;7.120;2022-08-21T13:57:17;100727.75;;;25.43;42.64
48015;BME280;33780;51.034;7.120;2022-08-21T13:59:43;100736.94;;;25.49;42.52
48015;BME280;33780;51.034;7.120;2022-08-21T14:02:20;100733.53;;;25.53;40.19
48015;BME280;33780;51.034;7.120;2022-08-21T14:04:58;100725.22;;;25.60;42.22
48015;BME280;33780;51.034;7.120;2022-08-21T14:07:34;100724.28;;;25.66;41.39
48015;BME280;33780;51.034;7.120;2022-08-21T14:10:15;100714.97;;;25.74;42.63
48015;BME280;33780;51.034;7.120;2022-08-21T14:12:47;100705.19;;;25.78;41.64
48015;BME280;33780;51.034;7.120;2022-08-21T14:15:16;100717.59;;;25.80;41.36
48015;BME280;33780;51.034;7.120;2022-08-21T14:17:44;100717.94;;;25.72;41.21
48015;BME280;33780;51.034;7.120;2022-08-21T14:20:13;100717.34;;;25.70;40.98